Airfield :







YOU CAN JOIN US ON...

 
LOGIN :

Register | Disclaimer

   EN    FR    IT 

 









Legend :    VFR   Marginal VFR   IFR   Intensive IFR   Very Intensive IFR
Visi :
Ceiling :
>= 8 km
>= 3000ft
5 to 8 km
1000 to 3000 ft
1500m to 5 km
500 to 1000 ft
800 to 1500m
200 to 500 ft
< 800m
< 200 ft
Symbols :   Thunderstorms  Fog  Heavy snow  Heavy precipitations  Wind > 20 kt







- Airport Elevation : 232 ft
- IATA code : YQM


CYQM - Greater Moncton International

CURRENT METAR :
  • 200800Z 19007KT 15SM FEW140 BKN170 12/12 A2980 RMK AC2AC3 SLP092

EXPIRED METARs :
  • 200700Z 19007KT 15SM BKN150 BKN170 BKN200 12/12 A2980 RMK AC5AC1CI1 SLP094
  • 200600Z 20006KT 15SM FEW160 BKN170 BKN260 12/11 A2981 RMK AC2AC4CI1 SLP097

TAF TAF CYQM
Valid from the 20 at 06:00 until the 21 at 06:00 UTC


200540Z 2006/2106 18005KT P6SM BKN180
FM201000 18008KT P6SM SCT080 BKN120
BECMG 2013/2015 20012KT
FM201800 18012KT P6SM BKN080 OVC100
TEMPO 2018/2105 P6SM -SHRA
FM210500 13008KT 6SM -SHRA BR BKN015 OVC030 RMK NXT FCST BY 201200Z
CZQM FIR / North America



MET'MAP, your aeronautical weather chart ! - Copyright ORBIFLY December 2007 - Disclaimer

ORBIFLY MET'MAP TEAM :

Programming & Development : Alexandra Zaïnal
Concept & Development : Baudouin d'Aumeries
Co-Development & Prog : Marc-Olivier Méhu
Technical & hardware support : Manuel Goepfert

Contact : metmap@orbifly.com




SOURCES & CREDITS :

   NOAA